Time;durP1;ratioP1;P1;durP2;ratioP2;P2;SDS_P1;SDS_P2;PMS_P1;PMS_P2;Temp;Humidity;BMP_temperature;BMP_pressure;BME280_temperature;BME280_humidity;BME280_pressure;Samples;Min_cycle;Max_cycle;Signal;HPM_P1;HPM_P2
2021/06/29 00:01:32;;;;;;;4.45;4.15;;;;;;;19.98;84.32;100564.34;4963214;28;20039;-85
2021/06/29 00:03:59;;;;;;;4.35;4.05;;;;;;;19.93;84.24;100561.94;4978714;28;20050;-84
2021/06/29 00:06:26;;;;;;;5.07;4.20;;;;;;;19.91;84.25;100570.94;4953606;28;20043;-81
2021/06/29 00:08:53;;;;;;;5.15;4.70;;;;;;;19.88;84.11;100571.06;4975636;28;20035;-82
2021/06/29 00:11:23;;;;;;;4.47;4.07;;;;;;;19.90;84.34;100571.84;4964091;28;20109;-83
2021/06/29 00:13:49;;;;;;;4.40;4.10;;;;;;;19.95;83.79;100567.19;4956017;28;20069;-84
2021/06/29 00:16:18;;;;;;;4.32;4.03;;;;;;;20.00;83.64;100565.16;4967422;28;20101;-82
2021/06/29 00:18:46;;;;;;;3.75;3.45;;;;;;;20.04;83.17;100563.19;4948619;28;20399;-84
2021/06/29 00:21:13;;;;;;;4.75;4.45;;;;;;;20.07;82.98;100571.03;4967238;28;20078;-82
2021/06/29 00:23:41;;;;;;;4.32;3.92;;;;;;;20.10;82.80;100563.75;4982250;28;20042;-83
2021/06/29 00:26:11;;;;;;;4.90;4.38;;;;;;;20.13;82.81;100566.25;4949172;28;20058;-82
2021/06/29 00:28:38;;;;;;;5.35;4.85;;;;;;;20.13;83.90;100565.41;4969101;28;20042;-83
2021/06/29 00:31:06;;;;;;;5.43;4.90;;;;;;;20.13;84.54;100566.25;4964136;28;20047;-82
2021/06/29 00:33:33;;;;;;;6.07;5.57;;;;;;;20.11;85.31;100570.78;4968503;28;20042;-83
2021/06/29 00:36:00;;;;;;;8.10;6.38;;;;;;;20.10;85.63;100570.84;4951326;28;20058;-84
2021/06/29 00:38:28;;;;;;;6.30;5.70;;;;;;;20.12;86.55;100576.97;4968242;28;20113;-84
2021/06/29 00:40:56;;;;;;;7.07;6.47;;;;;;;20.12;86.43;100572.50;4963459;28;20055;-83
2021/06/29 00:43:23;;;;;;;6.45;5.43;;;;;;;20.10;86.96;100571.72;4979121;28;20045;-84
2021/06/29 00:45:50;;;;;;;6.85;6.25;;;;;;;20.07;87.32;100566.56;4939000;28;20054;-84
2021/06/29 00:48:17;;;;;;;6.72;5.75;;;;;;;20.03;87.53;100564.16;4969704;28;20047;-84
2021/06/29 00:50:46;;;;;;;6.35;5.82;;;;;;;19.99;87.65;100564.28;4965496;28;20047;-82
2021/06/29 00:53:15;;;;;;;6.20;5.80;;;;;;;19.98;88.03;100569.66;4948092;28;20057;-84
2021/06/29 00:55:43;;;;;;;4.93;4.53;;;;;;;19.95;87.97;100575.16;4964190;28;20050;-82
2021/06/29 00:58:13;;;;;;;5.85;5.45;;;;;;;19.96;87.92;100566.25;4952532;28;20045;-84
2021/06/29 01:00:43;;;;;;;7.32;5.82;;;;;;;19.99;87.91;100568.75;4969020;28;20130;-84
2021/06/29 01:03:10;;;;;;;6.82;6.13;;;;;;;20.02;88.00;100567.72;4967523;28;20129;-84
2021/06/29 01:05:38;;;;;;;7.72;6.47;;;;;;;20.02;87.96;100563.25;4968458;28;20043;-83
2021/06/29 01:08:05;;;;;;;5.97;5.47;;;;;;;20.01;87.58;100572.16;4952130;28;20077;-84
2021/06/29 01:10:32;;;;;;;6.18;5.68;;;;;;;19.98;87.78;100567.00;4963396;28;20049;-82
2021/06/29 01:13:00;;;;;;;6.20;5.68;;;;;;;19.96;87.85;100564.44;4962806;28;20051;-83
2021/06/29 01:15:27;;;;;;;6.63;6.13;;;;;;;19.92;87.63;100567.31;4965273;28;20149;-83
2021/06/29 01:17:59;;;;;;;5.80;5.35;;;;;;;19.87;88.65;100564.91;4967427;28;20298;-83
2021/06/29 01:20:28;;;;;;;5.95;5.50;;;;;;;19.81;88.70;100562.50;4970787;28;20146;-83
2021/06/29 01:22:57;;;;;;;6.07;5.03;;;;;;;19.77;88.50;100568.91;4979753;28;20049;-83
2021/06/29 01:25:29;;;;;;;7.95;5.10;;;;;;;19.73;88.81;100580.63;4974640;28;20045;-83
2021/06/29 01:28:06;;;;;;;6.03;5.53;;;;;;;19.70;88.55;100586.94;4981356;28;20130;-83
2021/06/29 01:33:21;;;;;;;4.85;4.55;;;;;;;19.60;88.27;100591.81;4965599;28;20172;-84
2021/06/29 01:35:48;;;;;;;8.05;4.68;;;;;;;19.56;87.90;100595.56;4965868;28;20089;-84
2021/06/29 01:38:20;;;;;;;5.18;4.78;;;;;;;19.54;88.04;100592.09;4964860;28;20058;-85
2021/06/29 01:40:47;;;;;;;7.47;3.85;;;;;;;19.53;87.73;100593.06;4964411;28;20054;-83
2021/06/29 01:43:16;;;;;;;5.78;4.70;;;;;;;19.50;87.39;100588.75;4968585;28;20154;-83
2021/06/29 01:45:49;;;;;;;5.05;3.85;;;;;;;19.45;87.86;100585.47;4965718;28;20063;-83
2021/06/29 01:48:21;;;;;;;6.50;4.97;;;;;;;19.39;87.79;100593.69;4968940;28;20446;-82
2021/06/29 01:50:55;;;;;;;4.13;3.78;;;;;;;19.31;87.79;100598.50;4966211;28;20047;-85
2021/06/29 01:53:22;;;;;;;4.72;4.35;;;;;;;19.28;88.07;100595.97;4981740;28;20046;-83
2021/06/29 01:55:51;;;;;;;6.05;3.95;;;;;;;19.22;88.11;100594.50;4971617;28;20046;-82
2021/06/29 01:58:25;;;;;;;8.88;4.38;;;;;;;19.18;88.11;100601.72;4954793;28;20053;-84
2021/06/29 02:00:54;;;;;;;6.03;3.67;;;;;;;19.16;87.97;100613.34;4963237;28;20031;-84
2021/06/29 02:03:22;;;;;;;4.45;3.47;;;;;;;19.17;87.65;100618.56;4961423;28;20474;-83
2021/06/29 02:05:49;;;;;;;4.07;3.45;;;;;;;19.20;87.34;100617.56;4978811;28;20074;-84
2021/06/29 02:08:17;;;;;;;5.70;2.90;;;;;;;19.23;87.05;100606.81;4949650;28;20077;-83
2021/06/29 02:10:45;;;;;;;6.97;3.22;;;;;;;19.25;86.56;100606.75;4965962;28;20034;-83
2021/06/29 02:13:12;;;;;;;10.10;3.75;;;;;;;19.24;86.27;100605.03;4966440;28;20071;-83
2021/06/29 02:15:38;;;;;;;6.03;3.15;;;;;;;19.22;86.14;100601.59;4954131;28;20047;-83
2021/06/29 02:18:07;;;;;;;5.32;3.08;;;;;;;19.22;86.00;100607.75;4963519;28;20099;-84
2021/06/29 02:20:37;;;;;;;3.72;2.45;;;;;;;19.21;85.84;100607.84;4976760;28;20055;-82
2021/06/29 02:23:05;;;;;;;4.70;2.95;;;;;;;19.20;85.81;100593.69;4951643;28;20038;-83
2021/06/29 02:25:32;;;;;;;3.85;2.53;;;;;;;19.22;85.49;100588.34;4972265;28;20054;-83
2021/06/29 02:27:59;;;;;;;4.35;2.33;;;;;;;19.25;85.51;100589.03;4979403;28;20046;-82
2021/06/29 02:30:26;;;;;;;5.70;2.28;;;;;;;19.24;85.50;100584.69;4981779;28;20055;-83
2021/06/29 02:32:54;;;;;;;3.63;2.65;;;;;;;19.23;85.57;100582.06;4952116;28;20046;-83
2021/06/29 02:35:21;;;;;;;4.68;2.90;;;;;;;19.21;85.24;100582.13;4974662;28;20121;-83
2021/06/29 02:37:47;;;;;;;10.25;4.32;;;;;;;19.24;85.32;100589.09;4967009;28;20047;-83
2021/06/29 02:40:14;;;;;;;3.33;2.53;;;;;;;19.23;85.47;100588.25;4976745;28;20078;-83
2021/06/29 02:42:42;;;;;;;5.25;2.83;;;;;;;19.24;85.60;100589.09;4967795;28;20039;-82
2021/06/29 02:45:12;;;;;;;3.55;3.25;;;;;;;19.25;85.63;100583.72;4974542;28;20553;-83
2021/06/29 02:47:39;;;;;;;6.82;3.78;;;;;;;19.27;85.67;100584.53;4953387;28;20047;-82
2021/06/29 02:50:09;;;;;;;4.53;3.22;;;;;;;19.29;85.63;100585.28;4967484;28;20054;-83
2021/06/29 02:52:37;;;;;;;4.68;2.78;;;;;;;19.33;85.58;100588.66;4965693;28;20123;-80
2021/06/29 02:55:08;;;;;;;8.27;3.55;;;;;;;19.37;85.52;100595.56;4966291;28;20050;-83
2021/06/29 02:57:36;;;;;;;4.45;2.30;;;;;;;19.40;85.54;100598.09;4957986;28;20051;-83
2021/06/29 03:00:11;;;;;;;6.88;3.25;;;;;;;19.44;86.02;100590.84;4951360;28;20105;-82
2021/06/29 03:02:38;;;;;;;5.28;3.08;;;;;;;19.47;86.00;100588.03;4968667;28;20065;-84
2021/06/29 03:05:06;;;;;;;3.90;3.45;;;;;;;19.51;85.95;100590.44;4968802;28;20766;-84
2021/06/29 03:07:34;;;;;;;4.43;3.13;;;;;;;19.57;86.15;100586.66;4967020;28;20043;-82
2021/06/29 03:10:01;;;;;;;3.45;3.20;;;;;;;19.60;86.00;100583.84;4963959;28;20051;-83
2021/06/29 03:12:28;;;;;;;3.67;3.38;;;;;;;19.64;86.07;100584.56;4965783;28;20057;-82
2021/06/29 03:14:57;;;;;;;5.95;2.80;;;;;;;19.66;86.37;100585.38;4951587;28;20612;-83
2021/06/29 03:17:24;;;;;;;6.80;3.88;;;;;;;19.71;86.36;100585.13;4968899;28;20051;-83
2021/06/29 03:19:52;;;;;;;3.88;3.55;;;;;;;19.74;87.06;100596.47;4973382;28;20529;-83
2021/06/29 03:22:19;;;;;;;5.55;3.80;;;;;;;19.75;87.02;100592.91;4967991;28;20039;-83
2021/06/29 03:24:50;;;;;;;3.60;3.30;;;;;;;19.76;87.28;100588.44;4971562;28;20528;-84
2021/06/29 03:27:19;;;;;;;4.40;2.97;;;;;;;19.77;87.54;100601.63;4968300;28;20047;-83
2021/06/29 03:29:46;;;;;;;6.78;4.10;;;;;;;19.74;89.08;100593.81;4954038;28;20134;-84
2021/06/29 03:32:14;;;;;;;7.38;3.53;;;;;;;19.72;89.44;100603.63;4966238;28;20035;-81
2021/06/29 03:34:42;;;;;;;9.05;4.45;;;;;;;19.68;89.76;100599.41;4966737;28;20051;-84
2021/06/29 03:37:09;;;;;;;4.40;3.53;;;;;;;19.61;91.53;100598.84;4977630;28;20058;-84
2021/06/29 03:39:37;;;;;;;8.63;4.78;;;;;;;19.43;94.56;100608.53;4954308;28;20051;-82
2021/06/29 03:42:05;;;;;;;5.53;4.85;;;;;;;18.90;100.00;100612.72;4967956;28;20121;-83
2021/06/29 03:44:33;;;;;;;5.55;4.97;;;;;;;18.64;100.00;100620.00;4954305;28;20043;-82
2021/06/29 03:47:01;;;;;;;8.32;4.57;;;;;;;18.49;100.00;100618.00;4965277;28;20484;-83
2021/06/29 03:49:28;;;;;;;6.72;5.90;;;;;;;18.39;100.00;100614.03;4969106;28;20086;-83
2021/06/29 03:51:56;;;;;;;6.95;4.75;;;;;;;18.31;100.00;100617.84;4945093;28;20039;-83
2021/06/29 03:54:24;;;;;;;8.80;5.72;;;;;;;18.29;100.00;100616.19;4966685;28;20069;-82
2021/06/29 03:56:50;;;;;;;8.25;5.50;;;;;;;18.28;100.00;100609.19;4970010;28;20395;-82
2021/06/29 03:59:17;;;;;;;6.15;5.60;;;;;;;18.27;100.00;100607.44;4956693;28;20059;-84
2021/06/29 04:01:46;;;;;;;6.63;6.03;;;;;;;18.28;100.00;100611.84;4963434;28;20074;-84
2021/06/29 04:04:13;;;;;;;6.80;5.55;;;;;;;18.24;100.00;100611.09;4955868;28;20051;-85
2021/06/29 04:06:40;;;;;;;5.90;4.63;;;;;;;18.21;100.00;100605.06;4968844;28;20038;-83
2021/06/29 04:09:09;;;;;;;6.85;4.82;;;;;;;18.14;100.00;100605.28;4957790;28;20078;-84
2021/06/29 04:11:37;;;;;;;6.05;5.63;;;;;;;18.13;100.00;100605.38;4966628;28;20055;-86
2021/06/29 04:14:06;;;;;;;5.07;4.68;;;;;;;18.13;100.00;100598.31;4967787;28;20584;-83
2021/06/29 04:16:34;;;;;;;5.45;4.30;;;;;;;18.14;100.00;100591.19;4953072;28;20034;-85
2021/06/29 04:19:03;;;;;;;5.28;4.88;;;;;;;18.10;100.00;100585.16;4967245;28;20046;-86
2021/06/29 04:21:30;;;;;;;5.28;4.68;;;;;;;18.11;100.00;100583.41;4952214;28;20552;-82
2021/06/29 04:24:05;;;;;;;9.65;4.40;;;;;;;18.11;100.00;100575.44;4950249;28;20054;-83
2021/06/29 04:26:35;;;;;;;8.32;4.57;;;;;;;18.14;100.00;100575.31;4956808;28;20050;-82
2021/06/29 04:29:03;;;;;;;5.20;4.80;;;;;;;18.14;100.00;100567.34;4966383;28;20047;-84
2021/06/29 04:31:29;;;;;;;5.50;4.63;;;;;;;18.14;100.00;100562.06;4949325;28;20043;-84
2021/06/29 04:33:56;;;;;;;5.35;4.15;;;;;;;18.16;100.00;100552.25;4953393;28;20050;-83
2021/06/29 04:36:26;;;;;;;5.10;4.63;;;;;;;18.18;100.00;100547.75;4986390;28;20900;-83
2021/06/29 04:38:53;;;;;;;4.95;4.55;;;;;;;18.18;100.00;100556.56;4972450;28;20039;-84
2021/06/29 04:41:21;;;;;;;4.50;4.18;;;;;;;18.19;100.00;100550.34;4985192;28;20058;-84
2021/06/29 04:43:49;;;;;;;4.80;4.40;;;;;;;18.21;100.00;100544.13;4957874;28;20043;-84
2021/06/29 04:46:16;;;;;;;5.75;4.43;;;;;;;18.22;100.00;100535.25;4986218;28;20417;-84
2021/06/29 04:48:43;;;;;;;6.55;4.93;;;;;;;18.26;100.00;100527.06;4971601;28;20108;-83
2021/06/29 04:51:10;;;;;;;3.97;3.67;;;;;;;18.32;100.00;100515.38;4953724;28;20047;-83
2021/06/29 04:53:40;;;;;;;6.88;3.80;;;;;;;18.32;100.00;100510.06;4972188;28;20046;-83
2021/06/29 04:56:16;;;;;;;4.63;3.92;;;;;;;18.33;100.00;100504.69;4970183;28;20616;-84
2021/06/29 04:58:51;;;;;;;4.13;3.92;;;;;;;18.37;100.00;100492.19;4989550;28;20129;-84
2021/06/29 05:01:18;;;;;;;4.22;3.75;;;;;;;18.39;100.00;100487.66;4976747;28;20075;-84
2021/06/29 05:03:44;;;;;;;4.22;4.00;;;;;;;18.44;100.00;100490.13;4978413;28;20053;-82
2021/06/29 05:06:15;;;;;;;4.68;4.28;;;;;;;18.50;100.00;100500.47;4972131;28;20043;-84
2021/06/29 05:08:43;;;;;;;4.20;4.00;;;;;;;18.51;100.00;100492.44;4973452;28;20049;-83
2021/06/29 05:11:13;;;;;;;5.20;4.75;;;;;;;18.52;100.00;100488.84;4970465;28;20497;-82
2021/06/29 05:13:40;;;;;;;6.10;4.53;;;;;;;18.56;100.00;100492.22;4973804;28;20044;-83
2021/06/29 05:16:08;;;;;;;3.97;3.67;;;;;;;18.57;100.00;100509.00;4974712;28;20088;-82
2021/06/29 05:18:35;;;;;;;4.43;4.13;;;;;;;18.59;100.00;100504.47;4955580;28;20145;-81
2021/06/29 05:21:02;;;;;;;3.35;3.08;;;;;;;18.61;100.00;100505.28;4972681;28;20751;-83
2021/06/29 05:23:29;;;;;;;3.47;3.17;;;;;;;18.60;100.00;100500.88;4971187;28;20145;-84
2021/06/29 05:25:56;;;;;;;3.97;3.67;;;;;;;18.62;100.00;100493.75;4972793;28;20038;-83
2021/06/29 05:28:23;;;;;;;3.80;3.40;;;;;;;18.62;100.00;100497.25;4973271;28;20046;-83
2021/06/29 05:30:50;;;;;;;3.35;3.05;;;;;;;18.63;100.00;100498.97;4956571;28;20054;-83
2021/06/29 05:33:21;;;;;;;6.55;3.67;;;;;;;18.63;100.00;100498.97;4961119;28;20039;-82
2021/06/29 05:35:50;;;;;;;6.93;3.40;;;;;;;18.66;100.00;100490.03;4955011;28;20046;-83
2021/06/29 05:38:28;;;;;;;;;;;;;;;;;;;;;
2021/06/29 05:40:55;;;;;;;6.75;4.22;;;;;;;18.69;100.00;100505.78;4977652;28;20058;-83
2021/06/29 05:43:22;;;;;;;4.32;3.90;;;;;;;18.72;100.00;100502.13;4948703;28;20044;-83
2021/06/29 05:45:48;;;;;;;5.80;4.40;;;;;;;18.76;100.00;100503.69;4949275;28;20114;-82
2021/06/29 05:48:18;;;;;;;4.60;4.30;;;;;;;18.82;100.00;100506.94;4949727;28;20043;-83
2021/06/29 05:50:45;;;;;;;7.28;4.05;;;;;;;18.86;100.00;100494.41;4951126;28;20083;-84
2021/06/29 05:53:15;;;;;;;7.78;4.45;;;;;;;18.89;100.00;100496.97;4947694;28;20039;-81
2021/06/29 05:55:42;;;;;;;4.43;4.03;;;;;;;18.93;100.00;100497.66;4950909;28;20114;-83
2021/06/29 05:58:09;;;;;;;4.93;4.03;;;;;;;18.94;100.00;100494.97;4951713;28;20082;-83
2021/06/29 06:00:36;;;;;;;8.95;6.80;;;;;;;18.96;100.00;100492.22;4934425;28;20053;-86
2021/06/29 06:03:05;;;;;;;4.97;4.57;;;;;;;18.99;100.00;100494.72;4955076;28;20058;-85
2021/06/29 06:05:33;;;;;;;5.68;5.18;;;;;;;19.04;100.00;100503.31;4952988;28;20079;-86
2021/06/29 06:08:03;;;;;;;5.22;4.82;;;;;;;19.10;100.00;100507.47;4955689;28;20055;-85
2021/06/29 06:10:30;;;;;;;8.38;4.70;;;;;;;19.13;100.00;100508.19;4934704;28;20057;-85
2021/06/29 06:12:56;;;;;;;5.28;4.75;;;;;;;19.16;100.00;100507.19;4951888;28;20050;-87
2021/06/29 06:15:23;;;;;;;5.80;5.13;;;;;;;19.17;100.00;100496.50;4936374;28;20130;-85
2021/06/29 06:17:54;;;;;;;5.60;4.55;;;;;;;19.23;100.00;100506.00;4924420;28;20047;-85
2021/06/29 06:20:22;;;;;;;4.20;3.88;;;;;;;19.22;100.00;100506.91;4948913;28;20047;-88
2021/06/29 06:22:50;;;;;;;5.00;4.40;;;;;;;19.25;100.00;100519.19;4934888;28;20054;-85
2021/06/29 06:25:21;;;;;;;5.95;4.40;;;;;;;19.30;100.00;100515.34;4930459;28;20047;-86
2021/06/29 06:27:51;;;;;;;4.90;4.10;;;;;;;19.36;100.00;100514.22;4944623;28;21715;-86
2021/06/29 06:30:19;;;;;;;4.03;3.67;;;;;;;19.39;99.90;100516.72;4966767;28;20078;-85
2021/06/29 06:32:46;;;;;;;6.63;5.03;;;;;;;19.43;100.00;100520.94;4935631;28;20057;-85
2021/06/29 06:35:13;;;;;;;7.45;5.53;;;;;;;19.44;100.00;100508.56;4953753;28;20095;-85
2021/06/29 06:37:40;;;;;;;5.57;4.63;;;;;;;19.49;100.00;100510.03;4957411;28;20043;-86
2021/06/29 06:40:07;;;;;;;4.25;3.95;;;;;;;19.56;99.81;100509.75;4956994;28;20513;-86
2021/06/29 06:42:35;;;;;;;5.90;4.68;;;;;;;19.62;99.21;100517.38;4939321;28;20050;-87
2021/06/29 06:45:04;;;;;;;5.10;4.70;;;;;;;19.70;99.08;100517.00;4972891;28;20456;-86
2021/06/29 06:47:32;;;;;;;4.60;4.20;;;;;;;19.77;98.87;100516.63;4959712;28;20042;-87
2021/06/29 06:49:59;;;;;;;5.35;4.85;;;;;;;19.90;98.27;100526.69;4957953;28;20133;-87
2021/06/29 06:52:27;;;;;;;4.75;4.20;;;;;;;19.98;97.84;100529.81;4972301;28;20053;-88
2021/06/29 06:54:55;;;;;;;5.72;5.00;;;;;;;19.99;97.45;100532.41;4974967;28;20398;-86
2021/06/29 06:57:23;;;;;;;5.40;4.95;;;;;;;20.02;97.80;100530.53;4973710;28;20038;-85
2021/06/29 06:59:49;;;;;;;5.13;4.72;;;;;;;20.08;97.66;100533.72;4963313;28;20060;-88
2021/06/29 07:02:16;;;;;;;5.15;4.50;;;;;;;20.17;96.88;100532.41;4982195;28;20046;-88
2021/06/29 07:04:43;;;;;;;5.35;4.10;;;;;;;20.28;96.19;100531.84;4971601;28;20122;-88
2021/06/29 07:07:11;;;;;;;5.60;4.13;;;;;;;20.41;95.63;100532.09;4972130;28;20042;-87
2021/06/29 07:09:38;;;;;;;4.00;3.63;;;;;;;20.48;94.54;100517.50;4972041;28;20078;-87
2021/06/29 07:12:08;;;;;;;3.30;3.10;;;;;;;20.61;94.51;100520.38;4972336;28;20050;-88
2021/06/29 07:14:35;;;;;;;4.40;3.17;;;;;;;20.80;94.24;100512.31;4970368;28;20051;-86
2021/06/29 07:17:02;;;;;;;3.92;3.63;;;;;;;20.91;92.58;100514.38;4970826;28;20039;-86
2021/06/29 07:19:30;;;;;;;3.50;3.28;;;;;;;20.97;92.42;100506.06;4972409;28;20084;-87
2021/06/29 07:21:57;;;;;;;4.47;3.28;;;;;;;21.02;92.39;100500.53;4971120;28;20490;-88
2021/06/29 07:24:25;;;;;;;3.65;3.38;;;;;;;21.07;91.77;100507.28;4975598;28;20050;-85
2021/06/29 07:26:52;;;;;;;3.78;3.55;;;;;;;21.10;92.00;100511.59;4986884;28;20047;-87
2021/06/29 07:29:19;;;;;;;3.40;3.10;;;;;;;21.19;92.00;100515.56;4972016;28;20046;-87
2021/06/29 07:31:48;;;;;;;3.60;3.30;;;;;;;21.29;91.75;100520.25;4968380;28;20045;-86
2021/06/29 07:34:17;;;;;;;5.75;4.03;;;;;;;21.39;89.62;100511.75;4956658;28;20052;-86
2021/06/29 07:36:45;;;;;;;3.20;2.90;;;;;;;21.47;89.77;100513.03;4986243;28;20540;-87
2021/06/29 07:39:14;;;;;;;2.58;2.38;;;;;;;21.64;89.41;100513.91;4967756;28;20062;-87
2021/06/29 07:41:43;;;;;;;4.18;3.10;;;;;;;21.90;88.21;100517.72;4982189;28;20470;-87
2021/06/29 07:44:11;;;;;;;3.22;2.78;;;;;;;22.10;86.72;100515.69;4971178;28;20436;-87
2021/06/29 07:46:40;;;;;;;3.17;2.88;;;;;;;22.17;85.13;100508.19;4960900;28;20034;-88
2021/06/29 07:49:07;;;;;;;3.88;3.35;;;;;;;22.09;86.23;100524.63;4983583;28;20061;-87
2021/06/29 07:51:35;;;;;;;4.65;3.25;;;;;;;21.87;86.54;100525.03;4952757;28;20425;-87
2021/06/29 07:54:04;;;;;;;5.07;3.30;;;;;;;21.60;87.50;100523.91;4943185;28;20062;-85
2021/06/29 07:56:33;;;;;;;4.72;3.47;;;;;;;21.43;88.08;100523.94;4966596;28;20125;-88
2021/06/29 07:59:01;;;;;;;3.58;3.33;;;;;;;21.32;89.25;100525.41;4970658;28;20055;-88
2021/06/29 08:01:29;;;;;;;2.85;2.67;;;;;;;21.29;89.40;100530.06;4967405;28;20074;-87
2021/06/29 08:03:55;;;;;;;3.92;3.63;;;;;;;21.15;89.52;100525.50;4953359;28;20065;-88
2021/06/29 08:06:22;;;;;;;3.40;3.20;;;;;;;21.07;89.55;100531.25;4953722;28;20481;-88
2021/06/29 08:08:52;;;;;;;3.70;3.40;;;;;;;20.97;90.37;100536.19;4967772;28;20089;-86
2021/06/29 08:11:21;;;;;;;2.83;2.63;;;;;;;20.93;90.73;100534.66;4976568;28;20047;-86
2021/06/29 08:13:49;;;;;;;3.58;3.28;;;;;;;20.87;90.94;100523.47;4977981;28;20042;-85
2021/06/29 08:16:16;;;;;;;3.42;3.05;;;;;;;20.82;91.42;100529.06;4970170;28;20077;-86
2021/06/29 08:18:55;;;;;;;4.10;3.80;;;;;;;20.76;91.73;100532.91;4989425;28;20041;-85
2021/06/29 08:21:22;;;;;;;3.50;3.20;;;;;;;20.67;91.88;100534.22;4923298;28;20111;-86
2021/06/29 08:23:50;;;;;;;6.90;3.33;;;;;;;20.63;92.41;100540.63;4981968;28;20046;-85
2021/06/29 08:26:17;;;;;;;4.18;3.72;;;;;;;20.61;92.69;100541.66;4959992;28;20066;-87
2021/06/29 08:28:44;;;;;;;4.15;3.28;;;;;;;20.60;92.83;100547.94;4959601;28;20135;-86
2021/06/29 08:31:12;;;;;;;5.43;3.30;;;;;;;20.58;92.96;100547.16;4970730;28;20073;-85
2021/06/29 08:33:41;;;;;;;4.30;3.53;;;;;;;20.58;93.10;100548.00;4965636;28;20054;-86
2021/06/29 08:36:09;;;;;;;5.32;3.22;;;;;;;20.57;93.41;100554.28;4958612;28;20045;-87
2021/06/29 08:38:45;;;;;;;3.95;2.85;;;;;;;20.54;93.14;100549.09;4980781;28;20139;-86
2021/06/29 08:41:15;;;;;;;3.13;2.92;;;;;;;20.53;92.87;100546.53;4953225;28;20066;-86
2021/06/29 08:43:47;;;;;;;4.68;3.40;;;;;;;20.51;93.27;100546.63;4971509;28;20058;-86
2021/06/29 08:46:15;;;;;;;5.93;3.60;;;;;;;20.48;93.12;100537.00;4955839;28;20055;-86
2021/06/29 08:48:43;;;;;;;4.18;3.83;;;;;;;20.49;93.33;100529.88;4974641;28;20489;-88
2021/06/29 08:51:14;;;;;;;3.15;2.95;;;;;;;20.53;93.20;100519.94;4978690;28;20054;-87
2021/06/29 08:53:43;;;;;;;5.38;2.42;;;;;;;20.53;92.93;100512.81;4977181;28;20658;-86
2021/06/29 08:56:15;;;;;;;4.95;3.47;;;;;;;20.57;92.96;100518.84;4959326;28;20054;-88
2021/06/29 08:58:47;;;;;;;2.95;2.80;;;;;;;20.64;92.79;100514.91;4987135;28;20046;-87
2021/06/29 09:01:16;;;;;;;;;;;;;;;20.70;92.74;100508.44;4971496;28;20051;-87
2021/06/29 09:03:44;;;;;;;3.88;3.58;;;;;;;20.85;92.03;100509.44;4974477;28;19977;-85
2021/06/29 09:06:14;;;;;;;4.93;4.45;;;;;;;21.03;91.11;100513.72;4978966;28;20461;-84
2021/06/29 09:08:42;;;;;;;3.80;3.08;;;;;;;21.21;89.96;100508.31;4944585;28;20101;-86
2021/06/29 09:11:19;;;;;;;4.03;2.95;;;;;;;21.46;88.87;100507.81;4966195;28;20055;-87
2021/06/29 09:14:09;;;;;;;3.10;2.85;;;;;;;21.75;87.87;100510.63;4978858;28;20053;-86
2021/06/29 09:16:40;;;;;;;4.00;3.55;;;;;;;21.96;87.12;100504.03;4967116;28;20054;-88
2021/06/29 09:19:10;;;;;;;7.97;4.07;;;;;;;22.08;86.44;100505.09;4957626;28;20055;-86
2021/06/29 09:21:39;;;;;;;3.83;3.42;;;;;;;22.20;85.77;100506.19;4954978;28;20055;-85
2021/06/29 09:24:07;;;;;;;3.35;3.05;;;;;;;22.33;84.93;100500.97;4951387;28;20054;-85
2021/06/29 09:26:42;;;;;;;4.40;2.63;;;;;;;22.38;84.75;100501.56;4971011;28;20047;-87
2021/06/29 09:29:11;;;;;;;2.95;2.53;;;;;;;22.37;84.11;100504.34;4975789;28;20594;-86
2021/06/29 09:31:42;;;;;;;3.28;2.97;;;;;;;22.31;84.27;100503.72;4962774;28;20047;-88
2021/06/29 09:34:14;;;;;;;2.50;2.35;;;;;;;22.22;84.32;100503.44;4981047;28;20059;-88
2021/06/29 09:36:44;;;;;;;3.78;3.47;;;;;;;22.14;84.80;100503.91;4971164;28;20709;-88
2021/06/29 09:39:17;;;;;;;4.07;3.10;;;;;;;22.09;85.03;100506.81;4981141;28;20066;-88
2021/06/29 09:41:47;;;;;;;3.67;3.37;;;;;;;22.10;85.53;100508.53;4987976;28;20121;-88
2021/06/29 09:44:20;;;;;;;4.65;3.17;;;;;;;22.18;85.25;100509.91;4966998;28;20361;-87
2021/06/29 09:46:47;;;;;;;3.38;3.08;;;;;;;22.20;84.79;100503.53;4970051;28;20141;-88
2021/06/29 09:49:20;;;;;;;5.00;2.58;;;;;;;22.20;84.65;100498.19;4984102;28;20042;-87
2021/06/29 09:51:53;;;;;;;3.33;3.03;;;;;;;22.24;84.96;100494.41;4968002;28;20049;-87
2021/06/29 09:54:22;;;;;;;5.13;2.90;;;;;;;22.19;84.65;100491.16;4955381;28;20050;-87
2021/06/29 09:56:53;;;;;;;4.10;2.88;;;;;;;22.16;84.75;100498.47;4971455;28;20073;-89
2021/06/29 09:59:26;;;;;;;4.57;2.75;;;;;;;22.09;84.82;100500.66;4956861;28;20073;-86
2021/06/29 10:02:07;;;;;;;3.50;3.20;;;;;;;22.01;85.14;100493.09;4983407;28;20150;-88
2021/06/29 10:04:40;;;;;;;5.65;3.03;;;;;;;21.96;85.37;100492.50;4953671;28;20113;-86
2021/06/29 10:07:14;;;;;;;;;;;;;;;21.94;85.61;100487.28;4958464;28;20046;-87
2021/06/29 10:09:43;;;;;;;2.80;2.60;;;;;;;22.00;85.52;100487.88;4958163;28;19969;-87
2021/06/29 10:12:11;;;;;;;4.25;2.72;;;;;;;22.07;85.11;100484.75;4971010;28;20050;-88
2021/06/29 10:14:39;;;;;;;3.65;3.33;;;;;;;22.16;84.37;100490.47;4952261;28;20105;-88
2021/06/29 10:17:10;;;;;;;4.78;2.67;;;;;;;22.22;84.10;100480.28;4951390;28;20042;-88
2021/06/29 10:19:48;;;;;;;3.20;2.90;;;;;;;22.26;83.70;100484.47;4952759;28;20055;-88
2021/06/29 10:22:17;;;;;;;2.30;2.20;;;;;;;22.32;83.07;100472.59;4973931;28;20051;-88
2021/06/29 10:24:47;;;;;;;1.90;1.80;;;;;;;22.41;82.18;100476.53;4981362;28;20079;-87
2021/06/29 10:27:15;;;;;;;1.75;1.65;;;;;;;22.53;80.83;100467.78;4970375;28;20047;-87
2021/06/29 10:29:43;;;;;;;2.97;2.17;;;;;;;22.79;79.48;100474.13;4954694;28;20142;-87
2021/06/29 10:32:13;;;;;;;1.63;1.63;;;;;;;23.21;77.37;100473.34;4955262;28;20065;-86
2021/06/29 10:34:41;;;;;;;2.35;1.70;;;;;;;23.67;75.59;100474.78;4968091;28;20134;-85
2021/06/29 10:37:09;;;;;;;3.65;2.67;;;;;;;24.10;72.88;100474.56;4972011;28;20059;-87
2021/06/29 10:39:37;;;;;;;2.03;1.65;;;;;;;24.16;70.09;100463.47;4949953;28;20235;-88
2021/06/29 10:42:13;;;;;;;1.40;1.40;;;;;;;23.95;71.23;100463.97;4966199;28;20054;-87
2021/06/29 10:44:51;;;;;;;2.35;1.67;;;;;;;23.81;71.53;100453.34;4985046;28;20055;-87
2021/06/29 10:47:28;;;;;;;2.17;1.73;;;;;;;23.70;71.55;100464.75;4987312;28;20062;-87
2021/06/29 10:50:07;;;;;;;1.73;1.25;;;;;;;23.71;71.54;100468.28;4969595;28;20556;-87
2021/06/29 10:52:39;;;;;;;2.60;1.55;;;;;;;24.10;70.48;100464.72;4962734;28;20137;-88
2021/06/29 10:55:18;;;;;;;1.90;1.67;;;;;;;24.78;66.80;100467.19;4971066;28;20047;-87
2021/06/29 10:57:59;;;;;;;1.92;1.83;;;;;;;26.01;62.78;100467.06;4972680;28;20043;-87
2021/06/29 11:00:35;;;;;;;2.15;1.40;;;;;;;26.95;60.50;100466.94;4953965;28;20240;-88
2021/06/29 11:03:10;;;;;;;1.95;1.58;;;;;;;27.77;57.74;100462.91;4971077;28;20147;-89
2021/06/29 11:05:44;;;;;;;1.80;1.70;;;;;;;28.14;55.68;100466.03;4970880;28;20101;-87
2021/06/29 11:08:19;;;;;;;1.50;1.40;;;;;;;28.38;55.48;100462.19;4988954;28;20031;-89
2021/06/29 11:10:52;;;;;;;2.03;1.52;;;;;;;28.69;54.46;100464.91;4970201;28;20043;-88
2021/06/29 11:13:43;;;;;;;1.30;1.20;;;;;;;28.85;51.90;100472.47;4932872;28;20069;-85
2021/06/29 11:16:10;;;;;;;2.35;2.15;;;;;;;29.12;53.21;100457.50;4966100;28;20089;-86
2021/06/29 11:18:39;;;;;;;2.17;1.98;;;;;;;29.45;52.68;100458.13;4956991;28;20160;-85
2021/06/29 11:21:20;;;;;;;0.90;0.90;;;;;;;29.52;50.68;100459.28;4969182;28;20071;-88
2021/06/29 11:23:47;;;;;;;0.70;0.50;;;;;;;29.95;47.67;100460.69;4965653;28;20059;-85
2021/06/29 11:26:14;;;;;;;0.77;0.77;;;;;;;30.35;46.26;100464.97;4954067;28;21359;-88
2021/06/29 11:28:46;;;;;;;1.58;1.08;;;;;;;30.26;45.38;100452.38;4968768;28;20051;-87
2021/06/29 11:31:23;;;;;;;0.80;0.68;;;;;;;30.32;45.46;100453.63;4952402;28;20084;-87
2021/06/29 11:34:12;;;;;;;0.65;0.65;;;;;;;31.59;43.10;100436.69;4969761;28;20642;-87
2021/06/29 11:36:43;;;;;;;1.02;0.77;;;;;;;32.81;40.52;100448.50;4964615;28;20047;-87